Terminal Aerodrome Forecast
Issued by NWS Billings, MT

Home | Current Version | Previous Version | Text Only | Print | Product List | Glossary Off
Versions: 1 2 3 4 5 6 7 8 9 10 11 12 13 14 15 16 17 18 19 20 21 22 23 24 25 26

837
FTUS45 KBYZ 151735
TAFMLS
TAF
KMLS 151735Z 1518/1618 13009KT P6SM SCT250
     FM160200 14010KT P6SM SCT100 BKN250 WS020/15040KT
     FM160900 12008KT P6SM SCT100 BKN250=

USA.gov is the U.S. government's official web portal to all federal, state and local government web resources and services.